Time;durP1;ratioP1;P1;durP2;ratioP2;P2;SDS_P1;SDS_P2;PMS_P1;PMS_P2;Temp;Humidity;BMP_temperature;BMP_pressure;BME280_temperature;BME280_humidity;BME280_pressure;Samples;Min_cycle;Max_cycle;Signal;HPM_P1;HPM_P2
2023/02/11 00:01:13;;;;;;;16.83;10.10;;;7.00;99.90;;;;;;4998911;28;20025;-81
2023/02/11 00:03:39;;;;;;;19.15;10.43;;;7.00;99.90;;;;;;4997023;28;20022;-80
2023/02/11 00:06:08;;;;;;;17.92;9.45;;;6.90;99.90;;;;;;4999480;28;20042;-81
2023/02/11 00:08:34;;;;;;;26.52;10.20;;;7.00;99.90;;;;;;5011489;28;20033;-80
2023/02/11 00:10:59;;;;;;;18.08;10.13;;;6.90;99.90;;;;;;5002933;28;20022;-81
2023/02/11 00:13:26;;;;;;;18.23;9.48;;;6.90;99.90;;;;;;5003347;28;20029;-82
2023/02/11 00:15:52;;;;;;;14.32;8.55;;;6.90;99.90;;;;;;5012704;28;20032;-80
2023/02/11 00:18:17;;;;;;;19.05;9.70;;;6.90;99.90;;;;;;4998937;28;20041;-80
2023/02/11 00:20:43;;;;;;;19.10;9.38;;;6.90;99.90;;;;;;4998043;28;20060;-81
2023/02/11 00:23:09;;;;;;;23.08;9.50;;;6.90;99.90;;;;;;4999028;28;20053;-82
2023/02/11 00:25:40;;;;;;;17.52;8.27;;;6.90;99.90;;;;;;5003420;28;20041;-82
2023/02/11 00:28:05;;;;;;;13.20;7.28;;;6.90;99.90;;;;;;4997541;28;20174;-80
2023/02/11 00:30:31;;;;;;;14.23;7.63;;;6.90;99.90;;;;;;4997892;28;20113;-82
2023/02/11 00:32:57;;;;;;;19.73;7.57;;;6.90;99.90;;;;;;4997409;28;20026;-81
2023/02/11 00:35:22;;;;;;;16.42;7.90;;;6.90;99.90;;;;;;4999359;28;20135;-81
2023/02/11 00:37:48;;;;;;;18.23;9.32;;;6.90;99.90;;;;;;4998407;28;20033;-81
2023/02/11 00:40:14;;;;;;;17.60;7.65;;;6.90;99.90;;;;;;4997202;28;20053;-80
2023/02/11 00:42:41;;;;;;;17.88;7.28;;;6.90;99.90;;;;;;4999519;28;22205;-80
2023/02/11 00:45:08;;;;;;;18.02;7.85;;;6.90;99.90;;;;;;4997612;28;20030;-82
2023/02/11 00:47:34;;;;;;;17.05;8.10;;;6.90;99.90;;;;;;4997854;28;20084;-81
2023/02/11 00:50:00;;;;;;;14.70;7.35;;;6.90;99.90;;;;;;4997010;28;20023;-81
2023/02/11 00:52:26;;;;;;;18.02;7.55;;;6.90;99.90;;;;;;4997648;28;20057;-81
2023/02/11 00:54:51;;;;;;;16.50;7.38;;;6.90;99.90;;;;;;5003420;28;20104;-81
2023/02/11 00:57:17;;;;;;;12.70;5.95;;;6.90;99.90;;;;;;4998933;28;20037;-83
2023/02/11 00:59:42;;;;;;;15.82;5.65;;;6.90;99.90;;;;;;5002763;28;20079;-82
2023/02/11 01:02:08;;;;;;;13.40;6.57;;;6.90;99.90;;;;;;4998297;28;20029;-80
2023/02/11 01:04:33;;;;;;;20.38;8.65;;;6.90;99.90;;;;;;4998982;28;20057;-78
2023/02/11 01:06:59;;;;;;;12.23;7.10;;;6.90;99.90;;;;;;4999188;28;20096;-80
2023/02/11 01:09:25;;;;;;;16.90;7.55;;;6.90;99.90;;;;;;5012255;28;20026;-81
2023/02/11 01:11:50;;;;;;;14.02;7.25;;;6.90;99.90;;;;;;5000315;28;20554;-82
2023/02/11 01:14:16;;;;;;;14.30;7.43;;;6.90;99.90;;;;;;4999993;28;20034;-82
2023/02/11 01:16:42;;;;;;;15.30;8.00;;;7.00;99.90;;;;;;4999417;28;20025;-80
2023/02/11 01:19:07;;;;;;;16.48;7.60;;;6.90;99.90;;;;;;4999105;28;20018;-83
2023/02/11 01:21:33;;;;;;;11.65;6.47;;;6.90;99.90;;;;;;4999266;28;20030;-82
2023/02/11 01:23:58;;;;;;;14.68;6.53;;;6.90;99.90;;;;;;4997905;28;20453;-81
2023/02/11 01:26:24;;;;;;;15.18;6.80;;;6.90;99.90;;;;;;4999307;28;20360;-82
2023/02/11 01:28:49;;;;;;;15.77;6.95;;;6.80;99.90;;;;;;4999116;28;20030;-80
2023/02/11 01:31:15;;;;;;;17.75;7.65;;;6.80;99.90;;;;;;5000281;28;20033;-83
2023/02/11 01:33:41;;;;;;;16.73;6.90;;;6.80;99.90;;;;;;5000436;28;20026;-84
2023/02/11 01:36:07;;;;;;;14.40;6.78;;;6.70;99.90;;;;;;5000521;28;20045;-82
2023/02/11 01:38:33;;;;;;;14.52;6.93;;;6.70;99.90;;;;;;5004671;28;20026;-80
2023/02/11 01:41:02;;;;;;;13.63;7.07;;;6.70;99.90;;;;;;5004274;28;20018;-83
2023/02/11 01:43:33;;;;;;;16.45;6.82;;;6.60;99.90;;;;;;5034161;28;20042;-83
2023/02/11 01:46:14;;;;;;;18.83;7.38;;;6.70;99.90;;;;;;5023955;28;20038;-82
2023/02/11 01:48:46;;;;;;;16.17;7.13;;;6.70;99.90;;;;;;5030081;28;20022;-82
2023/02/11 01:51:17;;;;;;;18.10;7.22;;;6.70;99.90;;;;;;5001099;28;20499;-83
2023/02/11 01:59:27;;;;;;;16.92;6.50;;;6.70;99.90;;;;;;4998605;28;20096;-83
2023/02/11 02:01:59;;;;;;;16.83;6.07;;;6.70;99.90;;;;;;5000839;28;20040;-82
2023/02/11 02:04:30;;;;;;;15.75;7.20;;;6.80;99.90;;;;;;4997410;28;22383;-82
2023/02/11 02:07:10;;;;;;;11.95;5.82;;;6.70;99.90;;;;;;4996647;28;20097;-83
2023/02/11 02:09:42;;;;;;;14.25;6.93;;;6.70;99.90;;;;;;4997777;28;20512;-82
2023/02/11 02:12:07;;;;;;;17.77;7.40;;;6.70;99.90;;;;;;5011655;28;20033;-83
2023/02/11 02:14:38;;;;;;;16.20;6.85;;;6.70;99.90;;;;;;4994612;28;20426;-82
2023/02/11 02:17:03;;;;;;;14.95;6.57;;;6.70;99.90;;;;;;4996336;28;20095;-84
2023/02/11 02:19:35;;;;;;;15.75;5.60;;;6.70;99.90;;;;;;4997482;28;20539;-83
2023/02/11 02:22:27;;;;;;;9.82;4.97;;;6.70;99.90;;;;;;5012251;28;20037;-83
2023/02/11 02:25:08;;;;;;;19.20;7.05;;;6.70;99.90;;;;;;4995792;28;20036;-82
2023/02/11 02:28:12;;;;;;;17.63;7.70;;;6.70;99.90;;;;;;5012023;28;20491;-83
2023/02/11 02:30:56;;;;;;;17.17;7.13;;;6.70;99.90;;;;;;4997541;28;20052;-80
2023/02/11 02:33:30;;;;;;;17.35;6.45;;;6.70;99.90;;;;;;5011347;28;20034;-83
2023/02/11 02:36:02;;;;;;;13.35;5.20;;;6.70;99.90;;;;;;5011523;28;20034;-81
2023/02/11 02:38:48;;;;;;;13.10;5.93;;;6.70;99.90;;;;;;5010576;28;20030;-82
2023/02/11 02:41:20;;;;;;;17.35;6.38;;;6.70;99.90;;;;;;5012039;28;20272;-82
2023/02/11 02:43:49;;;;;;;14.43;6.43;;;6.70;99.90;;;;;;4993868;28;20045;-82
2023/02/11 02:46:20;;;;;;;16.95;6.85;;;6.70;99.90;;;;;;5000366;28;20226;-82
2023/02/11 02:48:48;;;;;;;20.98;6.97;;;6.60;99.90;;;;;;5010613;28;20037;-83
2023/02/11 02:51:41;;;;;;;13.88;5.97;;;6.60;99.90;;;;;;4994626;28;20038;-81
2023/02/11 02:54:25;;;;;;;13.37;6.57;;;6.60;99.90;;;;;;4996557;28;20038;-82
2023/02/11 02:57:17;;;;;;;17.02;5.97;;;6.60;99.90;;;;;;4995258;28;20034;-82
2023/02/11 03:00:00;;;;;;;16.23;5.97;;;6.60;99.90;;;;;;5001899;28;20044;-82
2023/02/11 03:02:39;;;;;;;16.60;7.00;;;6.60;99.90;;;;;;4995566;28;20026;-81
2023/02/11 03:05:14;;;;;;;20.48;6.82;;;6.60;99.90;;;;;;4993635;28;20034;-81
2023/02/11 03:07:46;;;;;;;15.18;6.60;;;6.60;99.90;;;;;;4996800;28;20042;-82
2023/02/11 03:10:21;;;;;;;15.60;7.20;;;6.60;99.90;;;;;;5011769;28;20372;-81
2023/02/11 03:12:49;;;;;;;15.00;7.00;;;6.60;99.90;;;;;;4994953;28;20104;-83
2023/02/11 03:15:17;;;;;;;15.02;6.80;;;6.60;99.90;;;;;;4995354;28;20208;-82
2023/02/11 03:17:47;;;;;;;16.55;6.85;;;6.60;99.90;;;;;;4996479;28;20037;-81
2023/02/11 03:20:16;;;;;;;17.35;6.75;;;6.60;99.90;;;;;;4995039;28;20540;-81
2023/02/11 03:23:07;;;;;;;13.02;6.22;;;6.60;99.90;;;;;;4995644;28;20026;-83
2023/02/11 03:25:40;;;;;;;11.55;6.38;;;6.60;99.90;;;;;;4996908;28;20057;-81
2023/02/11 03:28:21;;;;;;;16.73;7.57;;;6.60;99.90;;;;;;5016220;28;20022;-81
2023/02/11 03:31:04;;;;;;;15.55;7.22;;;6.60;99.90;;;;;;5002563;28;20026;-82
2023/02/11 03:33:42;;;;;;;15.05;7.22;;;6.60;99.90;;;;;;4999618;28;20029;-84
2023/02/11 03:36:16;;;;;;;14.98;7.38;;;6.60;99.90;;;;;;5015115;28;20460;-82
2023/02/11 03:38:49;;;;;;;15.02;7.60;;;6.50;99.90;;;;;;5000233;28;20422;-83
2023/02/11 03:41:18;;;;;;;14.57;7.60;;;6.50;99.90;;;;;;4999406;28;20050;-81
2023/02/11 03:43:51;;;;;;;17.50;7.75;;;6.50;99.90;;;;;;4999032;28;20511;-82
2023/02/11 03:46:22;;;;;;;17.85;7.65;;;6.50;99.90;;;;;;4998703;28;20879;-82
2023/02/11 03:48:52;;;;;;;15.50;8.18;;;6.50;99.90;;;;;;4999302;28;20018;-83
2023/02/11 03:51:20;;;;;;;16.02;7.93;;;6.50;99.90;;;;;;5016041;28;20036;-81
2023/02/11 03:53:47;;;;;;;14.40;8.13;;;6.60;99.90;;;;;;4999750;28;20033;-81
2023/02/11 03:56:20;;;;;;;15.77;8.05;;;6.60;99.90;;;;;;5014884;28;20026;-81
2023/02/11 03:58:47;;;;;;;16.58;8.88;;;6.50;99.90;;;;;;4999994;28;20035;-81
2023/02/11 04:01:13;;;;;;;14.70;7.50;;;6.60;99.90;;;;;;4998091;28;20029;-81
2023/02/11 04:03:38;;;;;;;22.58;9.65;;;6.60;99.90;;;;;;4998413;28;20028;-80
2023/02/11 04:06:04;;;;;;;19.38;9.82;;;6.60;99.90;;;;;;4997097;28;20038;-80
2023/02/11 04:08:30;;;;;;;18.23;9.23;;;6.60;99.90;;;;;;4998125;28;20101;-81
2023/02/11 04:10:56;;;;;;;18.52;9.43;;;6.60;99.90;;;;;;4997340;28;20026;-81
2023/02/11 04:13:22;;;;;;;17.77;8.85;;;6.60;99.90;;;;;;5004075;28;20035;-84
2023/02/11 04:15:47;;;;;;;15.05;8.57;;;6.60;99.90;;;;;;5003399;28;20025;-82
2023/02/11 04:18:13;;;;;;;19.00;8.65;;;6.60;99.90;;;;;;4998484;28;20038;-82
2023/02/11 04:20:38;;;;;;;20.13;8.38;;;6.60;99.90;;;;;;4999197;28;20030;-82
2023/02/11 04:23:04;;;;;;;15.77;8.82;;;6.60;99.90;;;;;;5004164;28;20076;-80
2023/02/11 04:25:30;;;;;;;18.40;7.93;;;6.60;99.90;;;;;;4998346;28;20117;-80
2023/02/11 04:27:55;;;;;;;18.27;9.77;;;6.60;99.90;;;;;;4997952;28;20598;-82
2023/02/11 04:30:21;;;;;;;20.98;9.55;;;6.60;99.90;;;;;;5014760;28;20054;-80
2023/02/11 04:32:46;;;;;;;17.90;9.80;;;6.60;99.90;;;;;;5003342;28;20464;-83
2023/02/11 04:35:12;;;;;;;20.45;10.27;;;6.60;99.90;;;;;;4996572;28;20018;-80
2023/02/11 04:37:37;;;;;;;19.60;9.50;;;6.60;99.90;;;;;;4997780;28;20038;-81
2023/02/11 04:40:03;;;;;;;14.30;8.88;;;6.60;99.90;;;;;;4996177;28;20073;-81
2023/02/11 04:42:29;;;;;;;15.82;8.02;;;6.60;99.90;;;;;;5003146;28;20041;-82
2023/02/11 04:44:55;;;;;;;14.82;7.07;;;6.60;99.90;;;;;;4997516;28;20306;-80
2023/02/11 04:47:20;;;;;;;17.63;7.95;;;6.60;99.90;;;;;;4996691;28;20096;-80
2023/02/11 04:49:46;;;;;;;16.88;10.15;;;6.60;99.90;;;;;;4998629;28;20032;-81
2023/02/11 04:52:11;;;;;;;20.60;10.00;;;6.70;99.90;;;;;;5002929;28;20034;-80
2023/02/11 04:54:37;;;;;;;19.00;9.75;;;6.70;99.90;;;;;;5001697;28;20022;-82
2023/02/11 04:57:02;;;;;;;23.10;10.82;;;6.70;99.90;;;;;;4995962;28;20030;-83
2023/02/11 04:59:28;;;;;;;20.65;9.68;;;6.60;99.90;;;;;;4996347;28;20037;-84
2023/02/11 05:01:54;;;;;;;16.88;9.43;;;6.60;99.90;;;;;;4999189;28;20065;-83
2023/02/11 05:04:19;;;;;;;17.45;8.93;;;6.70;99.90;;;;;;5000768;28;20033;-81
2023/02/11 05:06:45;;;;;;;16.88;8.85;;;6.60;99.90;;;;;;5003077;28;20513;-83
2023/02/11 05:09:13;;;;;;;18.20;9.98;;;6.70;99.90;;;;;;5011463;28;20040;-83
2023/02/11 05:11:39;;;;;;;16.38;8.13;;;6.70;99.90;;;;;;5003305;28;20065;-82
2023/02/11 05:14:06;;;;;;;15.57;8.60;;;6.60;99.90;;;;;;4997408;28;20895;-82
2023/02/11 05:16:32;;;;;;;16.95;9.73;;;6.70;99.90;;;;;;4998329;28;20405;-82
2023/02/11 05:18:58;;;;;;;20.88;10.60;;;6.60;99.90;;;;;;5002221;28;20061;-81
2023/02/11 05:21:24;;;;;;;20.15;10.77;;;6.60;99.90;;;;;;4998488;28;20030;-82
2023/02/11 05:23:50;;;;;;;20.95;10.82;;;6.60;99.90;;;;;;4999178;28;20034;-78
2023/02/11 05:26:16;;;;;;;17.77;9.57;;;6.60;99.90;;;;;;4998437;28;20050;-82
2023/02/11 05:28:42;;;;;;;15.68;9.13;;;6.60;99.90;;;;;;4998220;28;20116;-83
2023/02/11 05:31:08;;;;;;;20.50;10.95;;;6.60;99.90;;;;;;4997520;28;20411;-83
2023/02/11 05:33:34;;;;;;;18.02;10.48;;;6.60;99.90;;;;;;5003338;28;20018;-80
2023/02/11 05:36:08;;;;;;;18.88;11.30;;;6.60;99.90;;;;;;4999453;28;20034;-82
2023/02/11 05:38:34;;;;;;;16.85;10.13;;;6.60;99.90;;;;;;5013876;28;20092;-83
2023/02/11 05:41:01;;;;;;;21.20;10.35;;;6.60;99.90;;;;;;4997113;28;20040;-82
2023/02/11 05:43:26;;;;;;;19.98;10.18;;;6.60;99.90;;;;;;4999005;28;20154;-84
2023/02/11 05:45:52;;;;;;;16.52;10.43;;;6.60;99.90;;;;;;5001885;28;20042;-82
2023/02/11 05:48:18;;;;;;;19.13;10.30;;;6.60;99.90;;;;;;4998346;28;20536;-81
2023/02/11 05:50:44;;;;;;;21.02;11.75;;;6.60;99.90;;;;;;4996756;28;20554;-83
2023/02/11 05:53:09;;;;;;;18.33;9.88;;;6.60;99.90;;;;;;4999734;28;20034;-85
2023/02/11 05:55:35;;;;;;;21.48;11.15;;;6.60;99.90;;;;;;5000355;28;20149;-83
2023/02/11 05:58:01;;;;;;;25.10;12.75;;;6.60;99.90;;;;;;5001056;28;20034;-82
2023/02/11 06:00:26;;;;;;;22.88;10.77;;;6.60;99.90;;;;;;5002065;28;20061;-82
2023/02/11 06:02:52;;;;;;;18.40;11.25;;;6.60;99.90;;;;;;4999962;28;20088;-84
2023/02/11 06:05:18;;;;;;;18.58;10.38;;;6.60;99.90;;;;;;4998607;28;20421;-82
2023/02/11 06:07:43;;;;;;;20.60;11.45;;;6.60;99.90;;;;;;4997406;28;20045;-82
2023/02/11 06:10:09;;;;;;;18.77;11.93;;;6.60;99.90;;;;;;5012831;28;20286;-82
2023/02/11 06:12:36;;;;;;;16.83;10.25;;;6.60;99.90;;;;;;5000095;28;20033;-81
2023/02/11 06:15:02;;;;;;;20.92;11.10;;;6.60;99.90;;;;;;5011911;28;20044;-80
2023/02/11 06:17:32;;;;;;;18.75;11.05;;;6.60;99.90;;;;;;5023103;28;20025;-82
2023/02/11 06:20:01;;;;;;;21.95;13.02;;;6.60;99.90;;;;;;5017961;28;20021;-82
2023/02/11 06:22:27;;;;;;;24.75;13.30;;;6.60;99.90;;;;;;5020244;28;20068;-81
2023/02/11 06:24:53;;;;;;;25.33;13.00;;;6.60;99.90;;;;;;5002063;28;20053;-84
2023/02/11 06:27:18;;;;;;;25.13;14.63;;;6.60;99.90;;;;;;5003131;28;20081;-81
2023/02/11 06:29:45;;;;;;;26.33;13.70;;;6.60;99.90;;;;;;4998905;28;20026;-81
2023/02/11 06:32:11;;;;;;;22.45;13.93;;;6.60;99.90;;;;;;5002046;28;20053;-82
2023/02/11 06:34:37;;;;;;;26.38;13.05;;;6.60;99.90;;;;;;4997507;28;20018;-82
2023/02/11 06:37:03;;;;;;;26.25;15.05;;;6.60;99.90;;;;;;5012998;28;20531;-80
2023/02/11 06:39:29;;;;;;;21.27;13.00;;;6.50;99.90;;;;;;4996338;28;20030;-82
2023/02/11 06:41:54;;;;;;;18.95;12.38;;;6.60;99.90;;;;;;4996854;28;20029;-82
2023/02/11 06:44:20;;;;;;;25.95;14.95;;;6.60;99.90;;;;;;5001296;28;20038;-83
2023/02/11 06:46:46;;;;;;;26.40;15.82;;;6.60;99.90;;;;;;5001368;28;20038;-82
2023/02/11 06:49:12;;;;;;;23.17;15.73;;;6.50;99.90;;;;;;4996636;28;20030;-81
2023/02/11 06:51:37;;;;;;;23.17;15.20;;;6.60;99.90;;;;;;4995570;28;20054;-83
2023/02/11 06:54:04;;;;;;;25.83;15.35;;;6.60;99.90;;;;;;4995634;28;20026;-83
2023/02/11 06:56:30;;;;;;;30.60;16.10;;;6.60;99.90;;;;;;4998628;28;20058;-81
2023/02/11 06:58:56;;;;;;;29.02;16.25;;;6.60;99.90;;;;;;5001100;28;20056;-83
2023/02/11 07:01:23;;;;;;;22.75;13.65;;;6.60;99.90;;;;;;4995851;28;20023;-82
2023/02/11 07:03:52;;;;;;;24.15;14.25;;;6.60;99.90;;;;;;4996083;28;20022;-81
2023/02/11 07:06:21;;;;;;;21.10;13.18;;;6.60;99.90;;;;;;4995858;28;20050;-81
2023/02/11 07:08:47;;;;;;;25.98;17.23;;;6.60;99.90;;;;;;4996696;28;20022;-80
2023/02/11 07:11:19;;;;;;;28.35;15.73;;;6.60;99.90;;;;;;4994514;28;20113;-82
2023/02/11 07:13:45;;;;;;;28.73;15.80;;;6.60;99.90;;;;;;4994370;28;20026;-81
2023/02/11 07:16:14;;;;;;;27.42;15.45;;;6.60;99.90;;;;;;4995942;28;20625;-82
2023/02/11 07:18:40;;;;;;;30.23;17.70;;;6.60;99.90;;;;;;4993759;28;20516;-82
2023/02/11 07:21:06;;;;;;;30.88;17.92;;;6.60;99.90;;;;;;4991407;28;20026;-80
2023/02/11 07:23:33;;;;;;;31.75;18.15;;;6.60;99.90;;;;;;4993562;28;20431;-79
2023/02/11 07:26:03;;;;;;;33.25;17.15;;;6.60;99.90;;;;;;4992590;28;20514;-80
2023/02/11 07:28:28;;;;;;;29.73;16.13;;;6.60;99.90;;;;;;4993469;28;20037;-82
2023/02/11 07:30:54;;;;;;;34.75;17.85;;;6.70;99.90;;;;;;4993471;28;20563;-83
2023/02/11 07:33:19;;;;;;;36.88;19.52;;;6.60;99.90;;;;;;4992073;28;20555;-81
2023/02/11 07:35:45;;;;;;;30.83;18.25;;;6.60;99.90;;;;;;4992575;28;20053;-81
2023/02/11 07:38:10;;;;;;;34.30;19.38;;;6.70;99.90;;;;;;4992767;28;20978;-81
2023/02/11 07:40:36;;;;;;;33.40;19.05;;;6.60;99.90;;;;;;4995940;28;20065;-82
2023/02/11 07:43:04;;;;;;;32.58;18.85;;;6.70;99.90;;;;;;4992939;28;20054;-80
2023/02/11 07:45:30;;;;;;;29.70;17.67;;;6.70;99.90;;;;;;4991481;28;20495;-81
2023/02/11 07:47:57;;;;;;;31.02;17.95;;;6.70;99.90;;;;;;4997643;28;20523;-82
2023/02/11 07:50:23;;;;;;;29.23;17.08;;;6.70;99.90;;;;;;4993765;28;20022;-80
2023/02/11 07:52:48;;;;;;;29.80;16.90;;;6.70;99.90;;;;;;5007996;28;20116;-82
2023/02/11 07:55:14;;;;;;;32.08;18.10;;;6.80;99.90;;;;;;4992479;28;20117;-82
2023/02/11 07:57:40;;;;;;;35.08;17.10;;;6.80;99.90;;;;;;4997658;28;20041;-82
2023/02/11 08:00:06;;;;;;;29.40;17.88;;;6.80;99.90;;;;;;5009777;28;20048;-81
2023/02/11 08:02:31;;;;;;;37.28;21.10;;;6.80;99.90;;;;;;4992112;28;20038;-82
2023/02/11 08:04:57;;;;;;;29.17;18.40;;;6.80;99.90;;;;;;4996662;28;20034;-81
2023/02/11 08:07:23;;;;;;;37.03;21.98;;;6.80;99.90;;;;;;4994288;28;20061;-80
2023/02/11 08:09:49;;;;;;;42.53;23.80;;;6.90;99.90;;;;;;4993482;28;20069;-81
2023/02/11 08:12:14;;;;;;;45.15;24.33;;;6.90;99.90;;;;;;4995933;28;20449;-80
2023/02/11 08:14:40;;;;;;;39.85;22.75;;;6.90;99.90;;;;;;5001936;28;20109;-80
2023/02/11 08:17:05;;;;;;;43.70;23.13;;;6.90;99.90;;;;;;4997043;28;20057;-81
2023/02/11 08:19:32;;;;;;;40.35;23.02;;;6.90;99.90;;;;;;4998264;28;20061;-81
2023/02/11 08:21:59;;;;;;;49.53;26.23;;;6.90;99.90;;;;;;4998028;28;20196;-83
2023/02/11 08:24:24;;;;;;;49.47;26.05;;;7.00;99.90;;;;;;4998415;28;20030;-82
2023/02/11 08:26:50;;;;;;;46.33;26.13;;;7.00;99.90;;;;;;5002047;28;20369;-83
2023/02/11 08:29:16;;;;;;;50.42;26.17;;;7.00;99.90;;;;;;4999067;28;20041;-81
2023/02/11 08:31:45;;;;;;;45.50;25.45;;;7.00;99.90;;;;;;4998805;28;20044;-82
2023/02/11 08:34:13;;;;;;;40.88;23.23;;;7.10;99.90;;;;;;5002691;28;20030;-81
2023/02/11 08:36:41;;;;;;;43.25;24.08;;;7.10;99.90;;;;;;5000818;28;20037;-83
2023/02/11 08:39:11;;;;;;;46.70;25.13;;;7.10;99.90;;;;;;5001777;28;20041;-81
2023/02/11 08:41:37;;;;;;;47.75;26.73;;;7.20;99.90;;;;;;4999311;28;20030;-83
2023/02/11 08:44:03;;;;;;;49.33;25.80;;;7.10;99.90;;;;;;4997821;28;20044;-81
2023/02/11 08:46:29;;;;;;;43.63;24.80;;;7.20;99.90;;;;;;4998273;28;20042;-82
2023/02/11 08:48:55;;;;;;;39.03;23.17;;;7.20;99.90;;;;;;5000053;28;20026;-82
2023/02/11 08:51:26;;;;;;;47.13;26.17;;;7.20;99.90;;;;;;4998499;28;20041;-83
2023/02/11 08:53:52;;;;;;;45.65;26.30;;;7.30;99.90;;;;;;4995754;28;20026;-81
2023/02/11 08:56:19;;;;;;;45.28;25.88;;;7.30;99.90;;;;;;4998900;28;20129;-80
2023/02/11 08:58:45;;;;;;;51.47;26.25;;;7.30;99.90;;;;;;4999817;28;20105;-80
2023/02/11 09:01:27;;;;;;;43.65;24.73;;;7.40;99.90;;;;;;4994940;28;20423;-81
2023/02/11 09:03:53;;;;;;;41.33;23.30;;;7.40;99.90;;;;;;4996015;28;20117;-79
2023/02/11 09:06:21;;;;;;;46.03;26.83;;;7.50;99.90;;;;;;4995023;28;20043;-79
2023/02/11 09:08:49;;;;;;;48.97;27.70;;;7.50;99.90;;;;;;4996006;28;20061;-81
2023/02/11 09:11:17;;;;;;;47.95;28.00;;;7.50;99.90;;;;;;4995513;28;20124;-80
2023/02/11 09:13:43;;;;;;;54.63;30.60;;;7.50;99.90;;;;;;4995633;28;20038;-81
2023/02/11 09:16:22;;;;;;;60.70;31.58;;;7.60;99.90;;;;;;4999534;28;20026;-82
2023/02/11 09:18:48;;;;;;;56.97;33.10;;;7.60;99.90;;;;;;4995684;28;20057;-80
2023/02/11 09:21:16;;;;;;;57.88;30.17;;;7.60;99.90;;;;;;4995573;28;20045;-80
2023/02/11 09:23:43;;;;;;;59.40;33.58;;;7.60;99.90;;;;;;4994129;28;20060;-81
2023/02/11 09:26:12;;;;;;;58.75;32.90;;;7.70;99.90;;;;;;4999570;28;20044;-80
2023/02/11 09:28:38;;;;;;;56.47;31.42;;;7.70;99.90;;;;;;4994449;28;20080;-82
2023/02/11 09:31:09;;;;;;;58.83;31.67;;;7.70;99.90;;;;;;4994438;28;20037;-80
2023/02/11 09:33:36;;;;;;;54.55;30.92;;;7.70;99.90;;;;;;4996240;28;20668;-80
2023/02/11 09:36:03;;;;;;;56.33;31.15;;;7.80;99.90;;;;;;5010370;28;20487;-81
2023/02/11 09:38:29;;;;;;;61.13;32.53;;;7.80;99.90;;;;;;4996650;28;20048;-83
2023/02/11 09:40:54;;;;;;;54.67;32.25;;;7.90;99.90;;;;;;5008611;28;20026;-81
2023/02/11 09:43:23;;;;;;;55.45;32.65;;;7.90;99.90;;;;;;4994081;28;20046;-83
2023/02/11 09:45:49;;;;;;;60.20;33.22;;;7.90;99.90;;;;;;5001080;28;20045;-83
2023/02/11 09:48:20;;;;;;;55.22;31.15;;;8.00;99.90;;;;;;4994936;28;20030;-81
2023/02/11 09:50:59;;;;;;;55.38;30.83;;;8.00;99.90;;;;;;4996417;28;20172;-81
2023/02/11 09:53:27;;;;;;;53.63;31.92;;;8.00;99.90;;;;;;4994626;28;20018;-83
2023/02/11 09:56:01;;;;;;;62.80;34.00;;;8.10;99.90;;;;;;5012708;28;20025;-81
2023/02/11 09:58:30;;;;;;;56.00;31.95;;;8.10;99.90;;;;;;4998265;28;20028;-83
2023/02/11 10:01:07;;;;;;;53.00;30.98;;;8.10;99.90;;;;;;4997982;28;20026;-80
2023/02/11 10:03:57;;;;;;;56.95;33.00;;;8.20;99.90;;;;;;4996018;28;20062;-81
2023/02/11 10:06:44;;;;;;;59.95;33.60;;;8.20;99.90;;;;;;5011709;28;20046;-80
2023/02/11 10:09:12;;;;;;;56.92;32.83;;;8.20;99.90;;;;;;5013177;28;20364;-83
2023/02/11 10:11:56;;;;;;;58.00;33.03;;;8.20;99.90;;;;;;5012795;28;20034;-82
2023/02/11 10:14:48;;;;;;;54.13;31.80;;;8.20;99.90;;;;;;5015191;28;20046;-82
2023/02/11 10:17:25;;;;;;;52.45;31.83;;;8.20;99.90;;;;;;5011977;28;20087;-80
2023/02/11 10:20:02;;;;;;;52.67;31.23;;;8.30;99.90;;;;;;5018523;28;20037;-79
2023/02/11 10:22:41;;;;;;;54.13;32.40;;;8.20;99.90;;;;;;5030339;28;20025;-81
2023/02/11 10:25:27;;;;;;;51.83;30.98;;;8.30;99.90;;;;;;4999525;28;20126;-81
2023/02/11 10:27:56;;;;;;;54.13;32.13;;;8.40;99.90;;;;;;5002043;28;20575;-81
2023/02/11 10:30:31;;;;;;;51.40;30.95;;;8.40;99.90;;;;;;4997956;28;20026;-83
2023/02/11 10:33:05;;;;;;;45.63;28.38;;;8.40;99.90;;;;;;5014520;28;20119;-83
2023/02/11 10:35:31;;;;;;;43.55;27.33;;;8.40;99.90;;;;;;4999767;28;20080;-83
2023/02/11 10:37:57;;;;;;;44.60;28.48;;;8.50;99.90;;;;;;5013127;28;20041;-82
2023/02/11 10:40:25;;;;;;;54.28;30.63;;;8.50;99.90;;;;;;5001533;28;20478;-85
2023/02/11 10:42:55;;;;;;;51.97;31.83;;;8.60;99.90;;;;;;5005333;28;20061;-84
2023/02/11 10:45:35;;;;;;;51.85;32.13;;;8.60;99.90;;;;;;5002293;28;20026;-88
2023/02/11 10:48:05;;;;;;;42.80;26.60;;;8.70;99.90;;;;;;5001265;28;20088;-83
2023/02/11 10:50:33;;;;;;;44.92;28.17;;;8.70;99.90;;;;;;4996126;28;20097;-83
2023/02/11 10:53:20;;;;;;;49.80;31.85;;;8.80;99.90;;;;;;4997889;28;20033;-84
2023/02/11 10:55:52;;;;;;;53.05;31.58;;;8.80;99.90;;;;;;4998072;28;20026;-83
2023/02/11 10:58:27;;;;;;;45.75;30.70;;;8.80;99.90;;;;;;5013968;28;20037;-84
2023/02/11 11:00:55;;;;;;;48.60;31.80;;;8.80;99.90;;;;;;4997951;28;20025;-81
2023/02/11 11:03:24;;;;;;;49.05;30.23;;;8.80;99.90;;;;;;4998633;28;20098;-83
2023/02/11 11:05:55;;;;;;;51.60;30.25;;;8.80;99.90;;;;;;5012142;28;20045;-82
2023/02/11 11:08:21;;;;;;;47.50;31.10;;;8.80;99.90;;;;;;4995714;28;20026;-82
2023/02/11 11:11:20;;;;;;;48.50;31.20;;;9.00;99.90;;;;;;5011106;28;20473;-83
2023/02/11 11:13:51;;;;;;;47.70;31.52;;;9.00;99.90;;;;;;4996380;28;20472;-80
2023/02/11 11:16:29;;;;;;;41.55;27.85;;;9.20;99.90;;;;;;4998318;28;20105;-83
2023/02/11 11:19:06;;;;;;;43.00;29.85;;;9.50;99.90;;;;;;5012782;28;20038;-83
2023/02/11 11:21:40;;;;;;;45.53;28.10;;;9.60;99.90;;;;;;4999243;28;20038;-83
2023/02/11 11:24:17;;;;;;;42.40;27.98;;;9.60;99.90;;;;;;4999158;28;20022;-82
2023/02/11 11:26:46;;;;;;;41.33;25.98;;;9.50;99.90;;;;;;4996699;28;20480;-82
2023/02/11 11:30:02;;;;;;;44.00;27.40;;;9.40;99.90;;;;;;5011990;28;20030;-84
2023/02/11 11:32:32;;;;;;;40.70;25.35;;;9.40;99.90;;;;;;4995532;28;20048;-82
2023/02/11 11:35:06;;;;;;;33.05;22.88;;;9.30;99.90;;;;;;5013666;28;20030;-83
2023/02/11 11:37:37;;;;;;;38.78;24.90;;;9.30;99.90;;;;;;5014558;28;20052;-83
2023/02/11 11:40:22;;;;;;;31.67;22.50;;;9.30;99.90;;;;;;4995247;28;20526;-82
2023/02/11 11:43:02;;;;;;;34.13;23.42;;;9.50;99.90;;;;;;4997653;28;20037;-83
2023/02/11 11:45:27;;;;;;;33.55;21.83;;;9.50;99.90;;;;;;4997620;28;20079;-83
2023/02/11 11:48:17;;;;;;;36.22;23.58;;;9.70;99.90;;;;;;5002713;28;20038;-83
2023/02/11 11:50:48;;;;;;;32.88;22.30;;;9.70;99.90;;;;;;5000492;28;20049;-86
2023/02/11 11:53:24;;;;;;;30.27;21.08;;;9.80;99.90;;;;;;5017245;28;20033;-83
2023/02/11 11:56:03;;;;;;;29.10;19.25;;;9.90;99.90;;;;;;5004955;28;20472;-83
2023/02/11 11:58:30;;;;;;;28.38;20.40;;;10.00;99.90;;;;;;5005076;28;20033;-83
2023/02/11 12:00:59;;;;;;;30.65;20.23;;;10.10;99.90;;;;;;5004786;28;20069;-84
2023/02/11 12:04:09;;;;;;;29.42;20.00;;;10.20;99.90;;;;;;5018435;28;20423;-84
2023/02/11 12:06:52;;;;;;;28.58;19.73;;;10.30;99.90;;;;;;5017412;28;20061;-82
2023/02/11 12:09:22;;;;;;;32.45;20.98;;;10.60;99.90;;;;;;5016355;28;20503;-85
2023/02/11 12:12:25;;;;;;;25.00;18.75;;;10.90;99.90;;;;;;5003593;28;20093;-82
2023/02/11 12:15:18;;;;;;;26.15;18.33;;;11.10;99.90;;;;;;5016521;28;20136;-84
2023/02/11 12:18:05;;;;;;;26.33;17.40;;;11.60;99.90;;;;;;5001979;28;20526;-85
2023/02/11 12:21:22;;;;;;;22.08;16.38;;;12.00;99.90;;;;;;5015670;28;20030;-86
2023/02/11 12:24:00;;;;;;;20.30;14.07;;;12.10;99.90;;;;;;4997797;28;20664;-83
2023/02/11 12:26:38;;;;;;;20.80;15.25;;;12.10;99.90;;;;;;5001208;28;20046;-85
2023/02/11 12:29:06;;;;;;;21.20;15.32;;;12.60;99.90;;;;;;5002730;28;20017;-82
2023/02/11 12:31:47;;;;;;;19.40;15.55;;;13.10;99.90;;;;;;5016239;28;20038;-85
2023/02/11 12:34:42;;;;;;;19.77;14.10;;;13.60;99.90;;;;;;5014931;28;20034;-85
2023/02/11 12:37:22;;;;;;;21.58;15.13;;;13.90;99.90;;;;;;5000643;28;20054;-85
2023/02/11 12:39:59;;;;;;;17.90;13.00;;;13.60;99.90;;;;;;5003058;28;20476;-86
2023/02/11 12:45:39;;;;;;;17.83;12.65;;;12.80;99.90;;;;;;5002085;28;20115;-85
2023/02/11 12:48:05;;;;;;;;;;;12.60;99.90;;;;;;5019649;28;20469;-84
2023/02/11 12:50:51;;;;;;;16.42;11.63;;;12.50;99.90;;;;;;5001684;28;20004;-83
2023/02/11 12:53:20;;;;;;;14.10;10.77;;;12.30;99.90;;;;;;5000748;28;20026;-83
2023/02/11 12:55:51;;;;;;;16.63;11.63;;;12.20;99.90;;;;;;5000296;28;20447;-85
2023/02/11 12:58:24;;;;;;;19.80;13.10;;;12.30;99.90;;;;;;5015843;28;20086;-84
2023/02/11 13:00:59;;;;;;;;;;;12.60;99.90;;;;;;5017179;28;20026;-82
2023/02/11 13:03:33;;;;;;;16.95;13.20;;;12.60;99.90;;;;;;5000894;28;19910;-81
2023/02/11 13:06:06;;;;;;;14.65;11.18;;;12.70;99.90;;;;;;5002817;28;20042;-81